sensor_id;sensor_type;location;lat;lon;timestamp;pressure;altitude;pressure_sealevel;temperature;humidity
55066;BME280;40964;42.114;24.220;2022-09-17T00:02:16;96885.25;;;20.61;66.62
55066;BME280;40964;42.114;24.220;2022-09-17T00:04:41;96886.94;;;20.57;66.22
55066;BME280;40964;42.114;24.220;2022-09-17T00:07:07;96883.59;;;20.51;66.27
55066;BME280;40964;42.114;24.220;2022-09-17T00:09:32;96892.59;;;20.41;67.77
55066;BME280;40964;42.114;24.220;2022-09-17T00:11:58;96878.41;;;20.32;67.89
55066;BME280;40964;42.114;24.220;2022-09-17T00:14:24;96871.56;;;20.26;67.48
55066;BME280;40964;42.114;24.220;2022-09-17T00:16:49;96877.44;;;20.15;67.32
55066;BME280;40964;42.114;24.220;2022-09-17T00:19:20;96890.19;;;20.04;67.37
55066;BME280;40964;42.114;24.220;2022-09-17T00:21:47;96885.38;;;19.92;68.15
55066;BME280;40964;42.114;24.220;2022-09-17T00:24:14;96893.59;;;19.82;68.19
55066;BME280;40964;42.114;24.220;2022-09-17T00:26:41;96905.66;;;19.79;68.06
55066;BME280;40964;42.114;24.220;2022-09-17T00:29:06;96904.78;;;19.70;68.29
55066;BME280;40964;42.114;24.220;2022-09-17T00:31:33;96893.09;;;19.52;69.75
55066;BME280;40964;42.114;24.220;2022-09-17T00:34:00;96892.00;;;19.53;69.22
55066;BME280;40964;42.114;24.220;2022-09-17T00:36:26;96895.66;;;19.44;69.63
55066;BME280;40964;42.114;24.220;2022-09-17T00:38:57;96887.34;;;19.45;69.18
55066;BME280;40964;42.114;24.220;2022-09-17T00:41:25;96873.72;;;19.47;69.58
55066;BME280;40964;42.114;24.220;2022-09-17T00:43:56;96872.63;;;19.34;70.08
55066;BME280;40964;42.114;24.220;2022-09-17T00:46:32;96871.72;;;19.25;69.59
55066;BME280;40964;42.114;24.220;2022-09-17T00:49:03;96888.13;;;19.32;69.66
55066;BME280;40964;42.114;24.220;2022-09-17T00:51:35;96898.38;;;19.25;69.70
55066;BME280;40964;42.114;24.220;2022-09-17T00:54:03;96886.53;;;19.17;70.65
55066;BME280;40964;42.114;24.220;2022-09-17T00:56:33;96887.31;;;19.18;70.19
55066;BME280;40964;42.114;24.220;2022-09-17T00:59:00;96885.03;;;19.11;71.09
55066;BME280;40964;42.114;24.220;2022-09-17T01:01:27;96881.78;;;19.14;71.08
55066;BME280;40964;42.114;24.220;2022-09-17T01:03:53;96878.81;;;19.16;70.42
55066;BME280;40964;42.114;24.220;2022-09-17T01:06:24;96874.97;;;19.22;70.73
55066;BME280;40964;42.114;24.220;2022-09-17T01:09:21;96877.94;;;19.20;70.34
55066;BME280;40964;42.114;24.220;2022-09-17T01:12:14;96880.22;;;19.27;69.93
55066;BME280;40964;42.114;24.220;2022-09-17T01:34:29;96859.06;;;19.31;69.14
55066;BME280;40964;42.114;24.220;2022-09-17T01:37:17;96867.38;;;19.29;69.19
55066;BME280;40964;42.114;24.220;2022-09-17T01:39:48;96873.09;;;19.22;69.15
55066;BME280;40964;42.114;24.220;2022-09-17T01:42:19;96872.59;;;19.20;68.68
55066;BME280;40964;42.114;24.220;2022-09-17T01:45:29;96858.97;;;19.22;69.05
55066;BME280;40964;42.114;24.220;2022-09-17T01:48:02;96842.88;;;19.13;69.05
55066;BME280;40964;42.114;24.220;2022-09-17T01:50:36;96850.59;;;19.15;69.41
55066;BME280;40964;42.114;24.220;2022-09-17T01:53:04;96845.84;;;19.12;69.39
55066;BME280;40964;42.114;24.220;2022-09-17T01:55:34;96854.13;;;19.10;69.20
55066;BME280;40964;42.114;24.220;2022-09-17T01:58:09;96844.06;;;19.07;69.56
55066;BME280;40964;42.114;24.220;2022-09-17T02:00:37;96844.75;;;18.99;69.88
55066;BME280;40964;42.114;24.220;2022-09-17T02:03:16;96844.44;;;19.00;69.67
55066;BME280;40964;42.114;24.220;2022-09-17T02:08:27;96844.91;;;18.89;70.37
55066;BME280;40964;42.114;24.220;2022-09-17T02:10:59;96829.09;;;18.79;70.15
55066;BME280;40964;42.114;24.220;2022-09-17T02:16:15;96837.31;;;18.82;70.12
55066;BME280;40964;42.114;24.220;2022-09-17T02:18:48;96821.00;;;18.84;70.62
55066;BME280;40964;42.114;24.220;2022-09-17T02:21:43;96813.25;;;18.87;70.54
55066;BME280;40964;42.114;24.220;2022-09-17T02:26:50;96827.00;;;18.76;70.97
55066;BME280;40964;42.114;24.220;2022-09-17T02:29:31;96820.22;;;18.69;71.88
55066;BME280;40964;42.114;24.220;2022-09-17T02:31:58;96798.94;;;18.64;71.73
55066;BME280;40964;42.114;24.220;2022-09-17T02:34:25;96797.16;;;18.60;72.41
55066;BME280;40964;42.114;24.220;2022-09-17T02:36:52;96799.13;;;18.54;71.65
55066;BME280;40964;42.114;24.220;2022-09-17T02:39:18;96808.25;;;18.48;72.50
55066;BME280;40964;42.114;24.220;2022-09-17T02:41:51;96820.34;;;18.40;72.85
55066;BME280;40964;42.114;24.220;2022-09-17T02:44:30;96824.03;;;18.44;73.15
55066;BME280;40964;42.114;24.220;2022-09-17T02:47:07;96817.94;;;18.25;74.63
55066;BME280;40964;42.114;24.220;2022-09-17T02:55:38;96823.56;;;18.05;76.17
55066;BME280;40964;42.114;24.220;2022-09-17T02:58:25;96826.66;;;17.93;77.45
55066;BME280;40964;42.114;24.220;2022-09-17T03:00:54;96824.88;;;17.89;77.47
55066;BME280;40964;42.114;24.220;2022-09-17T03:03:32;96823.78;;;17.90;77.63
55066;BME280;40964;42.114;24.220;2022-09-17T03:06:00;96821.47;;;17.83;78.14
55066;BME280;40964;42.114;24.220;2022-09-17T03:08:32;96827.53;;;17.89;77.51
55066;BME280;40964;42.114;24.220;2022-09-17T03:10:59;96813.00;;;17.81;77.36
55066;BME280;40964;42.114;24.220;2022-09-17T03:13:24;96810.53;;;17.84;77.18
55066;BME280;40964;42.114;24.220;2022-09-17T03:15:50;96811.31;;;17.85;76.95
55066;BME280;40964;42.114;24.220;2022-09-17T03:18:15;96809.09;;;17.92;76.76
55066;BME280;40964;42.114;24.220;2022-09-17T03:20:41;96792.84;;;17.94;76.77
55066;BME280;40964;42.114;24.220;2022-09-17T03:23:06;96781.63;;;17.97;76.66
55066;BME280;40964;42.114;24.220;2022-09-17T03:25:32;96778.19;;;17.96;76.81
55066;BME280;40964;42.114;24.220;2022-09-17T03:27:57;96773.88;;;18.00;76.81
55066;BME280;40964;42.114;24.220;2022-09-17T03:30:23;96754.63;;;17.90;77.27
55066;BME280;40964;42.114;24.220;2022-09-17T03:32:48;96768.41;;;17.92;76.84
55066;BME280;40964;42.114;24.220;2022-09-17T03:35:14;96774.03;;;17.90;77.21
55066;BME280;40964;42.114;24.220;2022-09-17T03:37:39;96765.53;;;17.88;76.86
55066;BME280;40964;42.114;24.220;2022-09-17T03:40:05;96753.94;;;17.79;77.61
55066;BME280;40964;42.114;24.220;2022-09-17T03:42:31;96757.50;;;17.74;77.80
55066;BME280;40964;42.114;24.220;2022-09-17T03:44:56;96755.41;;;17.71;77.75
55066;BME280;40964;42.114;24.220;2022-09-17T03:47:22;96737.28;;;17.73;77.88
55066;BME280;40964;42.114;24.220;2022-09-17T03:49:47;96725.38;;;17.71;78.12
55066;BME280;40964;42.114;24.220;2022-09-17T03:52:13;96739.06;;;17.78;78.11
55066;BME280;40964;42.114;24.220;2022-09-17T03:54:38;96744.41;;;17.78;77.95
55066;BME280;40964;42.114;24.220;2022-09-17T03:57:04;96740.88;;;17.82;77.99
55066;BME280;40964;42.114;24.220;2022-09-17T03:59:29;96734.00;;;17.81;77.61
55066;BME280;40964;42.114;24.220;2022-09-17T04:01:55;96745.63;;;17.85;77.82
55066;BME280;40964;42.114;24.220;2022-09-17T04:04:21;96728.28;;;17.88;77.86
55066;BME280;40964;42.114;24.220;2022-09-17T04:06:47;96724.63;;;17.84;77.85
55066;BME280;40964;42.114;24.220;2022-09-17T04:09:12;96723.78;;;17.89;77.51
55066;BME280;40964;42.114;24.220;2022-09-17T04:11:38;96725.56;;;17.93;76.69
55066;BME280;40964;42.114;24.220;2022-09-17T04:14:03;96737.00;;;17.94;77.45
55066;BME280;40964;42.114;24.220;2022-09-17T04:16:29;96724.56;;;17.89;77.75
55066;BME280;40964;42.114;24.220;2022-09-17T04:18:54;96724.78;;;17.93;77.79
55066;BME280;40964;42.114;24.220;2022-09-17T04:21:20;96734.25;;;17.99;77.35
55066;BME280;40964;42.114;24.220;2022-09-17T04:23:45;96724.44;;;18.13;76.78
55066;BME280;40964;42.114;24.220;2022-09-17T04:26:11;96716.72;;;18.30;75.81
55066;BME280;40964;42.114;24.220;2022-09-17T04:28:37;96719.19;;;18.40;76.15
55066;BME280;40964;42.114;24.220;2022-09-17T04:31:02;96729.66;;;18.37;75.87
55066;BME280;40964;42.114;24.220;2022-09-17T04:33:28;96741.56;;;18.39;75.77
55066;BME280;40964;42.114;24.220;2022-09-17T04:35:53;96746.94;;;18.53;75.35
55066;BME280;40964;42.114;24.220;2022-09-17T04:38:19;96760.56;;;18.52;75.64
55066;BME280;40964;42.114;24.220;2022-09-17T04:40:46;96756.72;;;18.58;75.59
55066;BME280;40964;42.114;24.220;2022-09-17T04:43:12;96755.28;;;18.65;75.34
55066;BME280;40964;42.114;24.220;2022-09-17T04:45:38;96760.38;;;18.62;74.95
55066;BME280;40964;42.114;24.220;2022-09-17T04:48:03;96753.47;;;18.61;75.84
55066;BME280;40964;42.114;24.220;2022-09-17T04:50:29;96767.75;;;18.51;76.03
55066;BME280;40964;42.114;24.220;2022-09-17T04:52:55;96771.81;;;18.62;75.96
55066;BME280;40964;42.114;24.220;2022-09-17T04:55:20;96769.72;;;18.46;77.40
55066;BME280;40964;42.114;24.220;2022-09-17T04:57:51;96768.97;;;18.26;78.65
55066;BME280;40964;42.114;24.220;2022-09-17T05:00:18;96770.34;;;18.05;79.18
55066;BME280;40964;42.114;24.220;2022-09-17T05:02:49;96767.03;;;18.13;79.11
55066;BME280;40964;42.114;24.220;2022-09-17T05:05:16;96765.22;;;18.27;78.33
55066;BME280;40964;42.114;24.220;2022-09-17T05:07:42;96766.31;;;18.40;78.14
55066;BME280;40964;42.114;24.220;2022-09-17T05:10:09;96790.03;;;18.55;76.99
55066;BME280;40964;42.114;24.220;2022-09-17T05:12:35;96789.22;;;18.74;76.52
55066;BME280;40964;42.114;24.220;2022-09-17T05:15:01;96781.16;;;18.92;76.21
55066;BME280;40964;42.114;24.220;2022-09-17T05:17:27;96786.78;;;19.05;75.59
55066;BME280;40964;42.114;24.220;2022-09-17T05:19:53;96801.41;;;19.07;74.43
55066;BME280;40964;42.114;24.220;2022-09-17T05:22:18;96796.50;;;19.14;74.15
55066;BME280;40964;42.114;24.220;2022-09-17T05:24:45;96779.13;;;19.17;73.86
55066;BME280;40964;42.114;24.220;2022-09-17T05:27:11;96777.13;;;19.36;74.12
55066;BME280;40964;42.114;24.220;2022-09-17T05:29:37;96774.44;;;19.50;73.57
55066;BME280;40964;42.114;24.220;2022-09-17T05:32:03;96788.41;;;19.61;73.06
55066;BME280;40964;42.114;24.220;2022-09-17T05:34:29;96788.75;;;19.68;72.23
55066;BME280;40964;42.114;24.220;2022-09-17T05:36:54;96795.97;;;19.81;73.53
55066;BME280;40964;42.114;24.220;2022-09-17T05:39:20;96790.00;;;19.84;72.59
55066;BME280;40964;42.114;24.220;2022-09-17T05:41:51;96799.81;;;19.89;72.55
55066;BME280;40964;42.114;24.220;2022-09-17T05:44:17;96811.66;;;19.96;72.83
55066;BME280;40964;42.114;24.220;2022-09-17T05:46:43;96826.38;;;19.94;72.26
55066;BME280;40964;42.114;24.220;2022-09-17T05:49:08;96827.47;;;19.93;72.29
55066;BME280;40964;42.114;24.220;2022-09-17T05:51:34;96826.09;;;19.95;72.30
55066;BME280;40964;42.114;24.220;2022-09-17T05:53:59;96833.09;;;20.05;71.74
55066;BME280;40964;42.114;24.220;2022-09-17T05:56:25;96831.84;;;20.11;71.98
55066;BME280;40964;42.114;24.220;2022-09-17T05:58:54;96830.19;;;20.15;72.50
55066;BME280;40964;42.114;24.220;2022-09-17T06:01:21;96834.19;;;20.26;72.50
55066;BME280;40964;42.114;24.220;2022-09-17T06:03:46;96849.50;;;20.34;72.33
55066;BME280;40964;42.114;24.220;2022-09-17T06:06:12;96851.69;;;20.32;72.26
55066;BME280;40964;42.114;24.220;2022-09-17T06:08:37;96862.41;;;20.19;72.83
55066;BME280;40964;42.114;24.220;2022-09-17T06:11:04;96884.06;;;20.17;72.47
55066;BME280;40964;42.114;24.220;2022-09-17T06:13:30;96895.94;;;20.11;73.62
55066;BME280;40964;42.114;24.220;2022-09-17T06:15:55;96883.00;;;20.04;72.88
55066;BME280;40964;42.114;24.220;2022-09-17T06:18:21;96889.94;;;20.05;73.39
55066;BME280;40964;42.114;24.220;2022-09-17T06:23:19;96880.69;;;20.11;71.09
55066;BME280;40964;42.114;24.220;2022-09-17T06:25:52;96891.75;;;20.32;71.61
55066;BME280;40964;42.114;24.220;2022-09-17T06:28:19;96880.81;;;20.42;71.42
55066;BME280;40964;42.114;24.220;2022-09-17T06:30:44;96886.28;;;20.51;70.33
55066;BME280;40964;42.114;24.220;2022-09-17T06:33:10;96878.91;;;20.57;69.66
55066;BME280;40964;42.114;24.220;2022-09-17T06:35:35;96880.22;;;20.59;69.30
55066;BME280;40964;42.114;24.220;2022-09-17T06:38:03;96878.13;;;20.56;68.39
55066;BME280;40964;42.114;24.220;2022-09-17T06:40:29;96886.09;;;20.70;69.75
55066;BME280;40964;42.114;24.220;2022-09-17T06:42:58;96887.31;;;20.86;68.52
55066;BME280;40964;42.114;24.220;2022-09-17T06:45:27;96867.38;;;20.92;68.14
55066;BME280;40964;42.114;24.220;2022-09-17T06:47:53;96857.03;;;21.00;68.31
55066;BME280;40964;42.114;24.220;2022-09-17T06:50:19;96848.91;;;21.05;67.22
55066;BME280;40964;42.114;24.220;2022-09-17T06:52:52;96862.78;;;21.15;66.30
55066;BME280;40964;42.114;24.220;2022-09-17T06:55:18;96860.53;;;21.31;66.43
55066;BME280;40964;42.114;24.220;2022-09-17T06:57:44;96871.13;;;21.45;65.03
55066;BME280;40964;42.114;24.220;2022-09-17T07:00:11;96868.03;;;21.60;65.58
55066;BME280;40964;42.114;24.220;2022-09-17T07:02:37;96863.19;;;21.71;64.10
55066;BME280;40964;42.114;24.220;2022-09-17T07:05:03;96857.38;;;21.77;65.25
55066;BME280;40964;42.114;24.220;2022-09-17T07:07:29;96855.38;;;22.00;63.90
55066;BME280;40964;42.114;24.220;2022-09-17T07:09:55;96839.16;;;22.05;63.30
55066;BME280;40964;42.114;24.220;2022-09-17T07:12:21;96828.03;;;22.21;63.29
55066;BME280;40964;42.114;24.220;2022-09-17T07:14:46;96836.22;;;22.33;62.66
55066;BME280;40964;42.114;24.220;2022-09-17T07:17:13;96833.34;;;22.55;61.54
55066;BME280;40964;42.114;24.220;2022-09-17T07:19:38;96836.78;;;22.82;59.09
55066;BME280;40964;42.114;24.220;2022-09-17T07:22:04;96840.06;;;23.05;59.52
55066;BME280;40964;42.114;24.220;2022-09-17T07:24:30;96841.59;;;23.23;57.48
55066;BME280;40964;42.114;24.220;2022-09-17T07:26:55;96830.91;;;23.44;58.18
55066;BME280;40964;42.114;24.220;2022-09-17T07:29:21;96825.34;;;23.58;56.87
55066;BME280;40964;42.114;24.220;2022-09-17T07:31:50;96826.56;;;23.69;56.37
55066;BME280;40964;42.114;24.220;2022-09-17T07:34:16;96819.00;;;23.92;54.90
55066;BME280;40964;42.114;24.220;2022-09-17T07:36:42;96819.13;;;24.16;53.96
55066;BME280;40964;42.114;24.220;2022-09-17T07:39:08;96818.56;;;24.31;53.92
55066;BME280;40964;42.114;24.220;2022-09-17T07:41:35;96792.91;;;24.55;53.19
55066;BME280;40964;42.114;24.220;2022-09-17T07:44:01;96794.75;;;24.75;53.73
55066;BME280;40964;42.114;24.220;2022-09-17T07:46:27;96797.81;;;24.98;53.82
55066;BME280;40964;42.114;24.220;2022-09-17T07:48:53;96806.09;;;25.26;51.35
55066;BME280;40964;42.114;24.220;2022-09-17T07:51:21;96811.03;;;25.36;48.69
55066;BME280;40964;42.114;24.220;2022-09-17T07:53:50;96800.47;;;25.31;50.42
55066;BME280;40964;42.114;24.220;2022-09-17T07:56:15;96810.34;;;25.64;50.51
55066;BME280;40964;42.114;24.220;2022-09-17T07:58:41;96826.50;;;25.88;49.93
55066;BME280;40964;42.114;24.220;2022-09-17T08:01:09;96820.19;;;25.96;48.72
55066;BME280;40964;42.114;24.220;2022-09-17T08:03:36;96824.91;;;25.87;47.48
55066;BME280;40964;42.114;24.220;2022-09-17T08:06:06;96801.78;;;25.98;50.08
55066;BME280;40964;42.114;24.220;2022-09-17T08:08:33;96804.50;;;26.26;48.85
55066;BME280;40964;42.114;24.220;2022-09-17T08:13:29;96803.59;;;26.35;46.36
55066;BME280;40964;42.114;24.220;2022-09-17T08:16:07;96805.03;;;26.44;46.83
55066;BME280;40964;42.114;24.220;2022-09-17T08:18:33;96800.31;;;26.41;47.64
55066;BME280;40964;42.114;24.220;2022-09-17T08:21:01;96802.47;;;26.64;46.99
55066;BME280;40964;42.114;24.220;2022-09-17T08:23:28;96800.47;;;26.76;47.79
55066;BME280;40964;42.114;24.220;2022-09-17T08:25:55;96809.53;;;26.68;47.99
55066;BME280;40964;42.114;24.220;2022-09-17T08:28:21;96806.22;;;26.75;48.49
55066;BME280;40964;42.114;24.220;2022-09-17T08:30:48;96805.91;;;26.92;46.33
55066;BME280;40964;42.114;24.220;2022-09-17T08:33:14;96784.19;;;27.17;45.76
55066;BME280;40964;42.114;24.220;2022-09-17T08:35:40;96785.41;;;27.35;46.18
55066;BME280;40964;42.114;24.220;2022-09-17T08:38:05;96782.41;;;27.56;45.35
55066;BME280;40964;42.114;24.220;2022-09-17T08:40:36;96780.06;;;27.54;44.44
55066;BME280;40964;42.114;24.220;2022-09-17T08:43:03;96765.56;;;27.78;45.50
55066;BME280;40964;42.114;24.220;2022-09-17T08:45:30;96764.25;;;28.07;44.67
55066;BME280;40964;42.114;24.220;2022-09-17T08:48:01;96769.41;;;28.32;42.36
55066;BME280;40964;42.114;24.220;2022-09-17T08:50:34;96762.69;;;28.45;44.17
55066;BME280;40964;42.114;24.220;2022-09-17T08:56:00;96745.63;;;28.41;41.92
55066;BME280;40964;42.114;24.220;2022-09-17T09:04:15;96751.28;;;28.97;42.24
55066;BME280;40964;42.114;24.220;2022-09-17T09:06:49;96746.16;;;28.92;45.23
55066;BME280;40964;42.114;24.220;2022-09-17T09:09:21;96737.94;;;29.34;41.74
55066;BME280;40964;42.114;24.220;2022-09-17T09:11:53;96735.50;;;29.52;41.02
55066;BME280;40964;42.114;24.220;2022-09-17T09:14:26;96717.78;;;29.58;42.33
55066;BME280;40964;42.114;24.220;2022-09-17T09:16:55;96705.34;;;29.54;39.43
55066;BME280;40964;42.114;24.220;2022-09-17T09:19:29;96713.59;;;29.38;40.25
55066;BME280;40964;42.114;24.220;2022-09-17T09:27:39;96716.88;;;28.98;41.10
55066;BME280;40964;42.114;24.220;2022-09-17T09:30:14;96698.50;;;28.88;41.04
55066;BME280;40964;42.114;24.220;2022-09-17T09:35:32;96710.03;;;28.62;41.24
55066;BME280;40964;42.114;24.220;2022-09-17T09:40:57;96703.69;;;28.50;41.83
55066;BME280;40964;42.114;24.220;2022-09-17T09:43:30;96682.41;;;28.30;42.61
55066;BME280;40964;42.114;24.220;2022-09-17T09:56:57;96732.00;;;28.79;43.90
55066;BME280;40964;42.114;24.220;2022-09-17T09:59:25;96669.75;;;28.56;47.46
55066;BME280;40964;42.114;24.220;2022-09-17T10:01:50;96707.16;;;28.74;54.81
55066;BME280;40964;42.114;24.220;2022-09-17T10:04:25;96724.88;;;28.91;57.96
55066;BME280;40964;42.114;24.220;2022-09-17T10:06:59;96715.28;;;28.74;56.74
55066;BME280;40964;42.114;24.220;2022-09-17T10:09:28;96716.66;;;28.64;56.39
55066;BME280;40964;42.114;24.220;2022-09-17T10:12:00;96727.25;;;28.50;58.92
55066;BME280;40964;42.114;24.220;2022-09-17T10:14:28;96726.38;;;28.26;59.46
55066;BME280;40964;42.114;24.220;2022-09-17T10:17:26;96711.16;;;28.18;61.21
55066;BME280;40964;42.114;24.220;2022-09-17T10:22:38;96735.34;;;27.92;61.08
55066;BME280;40964;42.114;24.220;2022-09-17T10:25:28;96737.19;;;27.68;62.63
55066;BME280;40964;42.114;24.220;2022-09-17T10:27:56;96733.06;;;27.59;59.65
55066;BME280;40964;42.114;24.220;2022-09-17T10:30:23;96755.56;;;27.63;59.66
55066;BME280;40964;42.114;24.220;2022-09-17T10:33:29;96760.88;;;27.59;64.27
55066;BME280;40964;42.114;24.220;2022-09-17T10:36:11;96787.56;;;27.45;63.34
55066;BME280;40964;42.114;24.220;2022-09-17T10:38:40;96799.69;;;27.20;64.67
55066;BME280;40964;42.114;24.220;2022-09-17T10:41:19;96802.47;;;26.64;64.95
55066;BME280;40964;42.114;24.220;2022-09-17T10:43:50;96814.88;;;26.12;68.72
55066;BME280;40964;42.114;24.220;2022-09-17T10:46:33;96846.59;;;25.79;69.19
55066;BME280;40964;42.114;24.220;2022-09-17T10:57:06;96941.59;;;23.88;67.75
55066;BME280;40964;42.114;24.220;2022-09-17T11:10:43;96937.56;;;22.40;76.00
55066;BME280;40964;42.114;24.220;2022-09-17T11:13:41;96901.25;;;22.07;76.40
55066;BME280;40964;42.114;24.220;2022-09-17T11:19:44;96883.84;;;21.79;80.72
55066;BME280;40964;42.114;24.220;2022-09-17T11:22:24;96869.84;;;21.91;80.30
55066;BME280;40964;42.114;24.220;2022-09-17T11:25:15;96871.38;;;21.83;80.46
55066;BME280;40964;42.114;24.220;2022-09-17T11:28:08;96855.03;;;21.85;80.95
55066;BME280;40964;42.114;24.220;2022-09-17T11:34:39;96866.00;;;21.74;78.89
55066;BME280;40964;42.114;24.220;2022-09-17T11:36:45;96866.97;;;21.70;77.79
55066;BME280;40964;42.114;24.220;2022-09-17T11:39:18;96836.72;;;21.69;78.97
55066;BME280;40964;42.114;24.220;2022-09-17T11:41:48;96830.44;;;21.74;78.05
55066;BME280;40964;42.114;24.220;2022-09-17T11:44:29;96737.72;;;21.78;79.29
55066;BME280;40964;42.114;24.220;2022-09-17T11:47:08;96626.41;;;21.86;81.89
55066;BME280;40964;42.114;24.220;2022-09-17T11:49:44;96761.06;;;22.12;80.23
55066;BME280;40964;42.114;24.220;2022-09-17T11:52:17;96709.03;;;22.39;81.43
55066;BME280;40964;42.114;24.220;2022-09-17T11:55:27;96687.22;;;22.58;78.53
55066;BME280;40964;42.114;24.220;2022-09-17T11:57:44;96693.09;;;22.81;78.83
55066;BME280;40964;42.114;24.220;2022-09-17T12:00:13;96719.25;;;23.01;74.99
55066;BME280;40964;42.114;24.220;2022-09-17T12:02:55;96752.44;;;23.17;73.59
55066;BME280;40964;42.114;24.220;2022-09-17T12:16:09;96745.75;;;23.03;84.59
55066;BME280;40964;42.114;24.220;2022-09-17T12:18:43;96733.81;;;23.21;84.33
55066;BME280;40964;42.114;24.220;2022-09-17T12:21:14;96728.31;;;23.47;77.40
55066;BME280;40964;42.114;24.220;2022-09-17T12:24:32;96705.97;;;23.64;74.84
55066;BME280;40964;42.114;24.220;2022-09-17T12:37:16;96687.41;;;24.95;66.61
55066;BME280;40964;42.114;24.220;2022-09-17T12:49:52;96642.09;;;25.45;63.39
55066;BME280;40964;42.114;24.220;2022-09-17T12:58:00;96627.16;;;25.88;67.83
55066;BME280;40964;42.114;24.220;2022-09-17T13:00:34;96633.63;;;26.31;68.52
55066;BME280;40964;42.114;24.220;2022-09-17T13:03:24;96636.38;;;26.47;62.17
55066;BME280;40964;42.114;24.220;2022-09-17T13:18:12;96627.09;;;25.60;69.46
55066;BME280;40964;42.114;24.220;2022-09-17T13:20:25;96641.47;;;24.63;72.21
55066;BME280;40964;42.114;24.220;2022-09-17T13:22:54;96645.94;;;24.01;74.19
55066;BME280;40964;42.114;24.220;2022-09-17T13:25:21;96640.72;;;23.63;75.18
55066;BME280;40964;42.114;24.220;2022-09-17T13:27:48;96646.22;;;23.46;77.93
55066;BME280;40964;42.114;24.220;2022-09-17T13:30:18;96652.75;;;23.57;75.45
55066;BME280;40964;42.114;24.220;2022-09-17T13:32:49;96647.72;;;23.35;75.46
55066;BME280;40964;42.114;24.220;2022-09-17T13:37:53;96639.94;;;23.42;75.42
55066;BME280;40964;42.114;24.220;2022-09-17T13:43:06;96636.84;;;23.94;73.54
55066;BME280;40964;42.114;24.220;2022-09-17T13:45:34;96633.06;;;24.07;69.74
55066;BME280;40964;42.114;24.220;2022-09-17T13:48:20;96631.38;;;24.02;68.85
55066;BME280;40964;42.114;24.220;2022-09-17T13:50:47;96623.66;;;24.01;68.32
55066;BME280;40964;42.114;24.220;2022-09-17T13:55:47;96616.03;;;24.03;68.77
55066;BME280;40964;42.114;24.220;2022-09-17T14:13:51;96594.97;;;24.50;65.95
55066;BME280;40964;42.114;24.220;2022-09-17T14:24:39;96602.59;;;24.73;64.64
55066;BME280;40964;42.114;24.220;2022-09-17T14:30:16;96592.63;;;24.73;64.92
55066;BME280;40964;42.114;24.220;2022-09-17T14:37:48;96595.31;;;24.73;67.13
55066;BME280;40964;42.114;24.220;2022-09-17T14:40:17;96568.44;;;24.73;66.84
55066;BME280;40964;42.114;24.220;2022-09-17T14:42:45;96563.50;;;24.63;66.88
55066;BME280;40964;42.114;24.220;2022-09-17T14:45:38;96573.50;;;24.62;67.10
55066;BME280;40964;42.114;24.220;2022-09-17T14:48:26;96568.88;;;24.63;66.53
55066;BME280;40964;42.114;24.220;2022-09-17T14:51:09;96568.66;;;24.56;66.24
55066;BME280;40964;42.114;24.220;2022-09-17T14:53:35;96558.25;;;24.54;66.48
55066;BME280;40964;42.114;24.220;2022-09-17T14:56:00;96551.09;;;24.46;67.45
55066;BME280;40964;42.114;24.220;2022-09-17T14:58:35;96542.22;;;24.33;67.05
55066;BME280;40964;42.114;24.220;2022-09-17T15:01:02;96546.25;;;24.27;67.34
55066;BME280;40964;42.114;24.220;2022-09-17T15:03:27;96553.81;;;24.25;68.56
55066;BME280;40964;42.114;24.220;2022-09-17T15:05:53;96610.91;;;24.10;68.89
55066;BME280;40964;42.114;24.220;2022-09-17T15:08:22;96649.63;;;23.76;72.11
55066;BME280;40964;42.114;24.220;2022-09-17T15:13:26;96658.06;;;23.45;72.69
55066;BME280;40964;42.114;24.220;2022-09-17T15:18:57;96703.88;;;23.40;76.88
55066;BME280;40964;42.114;24.220;2022-09-17T15:26:40;96697.91;;;22.66;83.12
55066;BME280;40964;42.114;24.220;2022-09-17T15:29:11;96705.81;;;22.54;83.84
55066;BME280;40964;42.114;24.220;2022-09-17T15:31:38;96668.25;;;21.99;81.46
55066;BME280;40964;42.114;24.220;2022-09-17T15:34:03;96625.63;;;21.76;77.07
55066;BME280;40964;42.114;24.220;2022-09-17T15:36:29;96610.19;;;21.56;74.14
55066;BME280;40964;42.114;24.220;2022-09-17T15:38:57;96604.56;;;21.40;74.33
55066;BME280;40964;42.114;24.220;2022-09-17T15:41:35;96611.13;;;21.25;77.78
55066;BME280;40964;42.114;24.220;2022-09-17T15:44:21;96614.44;;;21.14;78.42
55066;BME280;40964;42.114;24.220;2022-09-17T15:46:47;96610.97;;;21.05;77.69
55066;BME280;40964;42.114;24.220;2022-09-17T15:49:33;96618.16;;;20.87;78.12
55066;BME280;40964;42.114;24.220;2022-09-17T15:54:49;96618.25;;;20.64;76.37
55066;BME280;40964;42.114;24.220;2022-09-17T15:57:15;96634.03;;;20.44;75.82
55066;BME280;40964;42.114;24.220;2022-09-17T15:59:41;96638.19;;;20.27;78.61
55066;BME280;40964;42.114;24.220;2022-09-17T16:02:24;96609.50;;;20.10;80.87
55066;BME280;40964;42.114;24.220;2022-09-17T16:07:38;96608.88;;;19.82;81.51
55066;BME280;40964;42.114;24.220;2022-09-17T16:10:05;96605.38;;;19.73;83.04
55066;BME280;40964;42.114;24.220;2022-09-17T16:12:31;96591.97;;;19.65;84.47
55066;BME280;40964;42.114;24.220;2022-09-17T16:14:58;96574.63;;;19.53;83.94
55066;BME280;40964;42.114;24.220;2022-09-17T16:20:21;96502.41;;;19.50;83.62
55066;BME280;40964;42.114;24.220;2022-09-17T16:22:48;96474.81;;;19.46;83.91
55066;BME280;40964;42.114;24.220;2022-09-17T16:25:16;96483.59;;;19.46;84.48
55066;BME280;40964;42.114;24.220;2022-09-17T16:27:50;96473.19;;;19.36;85.02
55066;BME280;40964;42.114;24.220;2022-09-17T16:30:20;96479.91;;;19.34;83.85
55066;BME280;40964;42.114;24.220;2022-09-17T16:32:47;96484.63;;;19.37;84.62